Time;durP1;ratioP1;P1;durP2;ratioP2;P2;SDS_P1;SDS_P2;PMS_P1;PMS_P2;Temp;Humidity;BMP_temperature;BMP_pressure;BME280_temperature;BME280_humidity;BME280_pressure;Samples;Min_cycle;Max_cycle;Signal;HPM_P1;HPM_P2
2021/05/12 00:02:14;;;;;;;3.60;2.33;;;;;;;9.12;84.70;95138.94;5075735;28;20195;-79
2021/05/12 00:04:39;;;;;;;3.90;2.30;;;;;;;9.20;84.26;95135.59;5092838;28;20635;-79
2021/05/12 00:07:05;;;;;;;3.97;2.23;;;;;;;9.08;84.49;95142.78;5075924;28;20172;-78
2021/05/12 00:09:30;;;;;;;2.23;2.03;;;;;;;9.05;84.58;95143.06;5075692;28;20177;-80
2021/05/12 00:11:55;;;;;;;4.43;2.10;;;;;;;9.03;83.82;95140.66;5075480;28;20222;-79
2021/05/12 00:14:21;;;;;;;2.07;1.70;;;;;;;8.94;84.21;95144.13;5092685;28;20188;-80
2021/05/12 00:16:47;;;;;;;3.37;2.10;;;;;;;8.91;84.64;95141.00;5094013;28;20510;-79
2021/05/12 00:19:13;;;;;;;3.23;1.90;;;;;;;8.92;84.32;95140.03;5092730;28;20176;-79
2021/05/12 00:21:47;;;;;;;2.07;1.87;;;;;;;8.90;84.17;95141.94;5091764;28;20207;-79
2021/05/12 00:24:12;;;;;;;2.93;1.90;;;;;;;8.82;84.39;95141.88;5092107;28;20263;-78
2021/05/12 00:26:38;;;;;;;2.70;1.40;;;;;;;8.83;83.89;95139.13;5092546;28;20667;-79
2021/05/12 00:29:08;;;;;;;1.93;1.40;;;;;;;8.85;84.11;95146.78;5092702;28;20591;-79
2021/05/12 00:31:34;;;;;;;2.23;1.70;;;;;;;8.76;84.22;95141.50;5074837;28;20691;-80
2021/05/12 00:33:59;;;;;;;1.83;1.30;;;;;;;8.69;84.51;95152.59;5075683;28;20203;-79
2021/05/12 00:36:25;;;;;;;3.67;1.70;;;;;;;8.66;84.22;95145.94;5092194;28;20205;-79
2021/05/12 00:38:50;;;;;;;1.70;1.20;;;;;;;8.90;83.12;95137.59;5092480;28;20176;-79
2021/05/12 00:41:16;;;;;;;2.90;1.40;;;;;;;8.74;83.48;95143.41;5074838;28;20196;-78
2021/05/12 00:43:41;;;;;;;2.23;1.30;;;;;;;8.79;83.25;95143.00;5092320;28;20187;-79
2021/05/12 00:46:07;;;;;;;1.53;1.40;;;;;;;8.71;83.55;95146.31;5093345;28;20185;-78
2021/05/12 00:48:33;;;;;;;2.50;1.60;;;;;;;8.70;83.40;95144.69;5092296;28;20178;-78
2021/05/12 00:50:58;;;;;;;1.97;1.70;;;;;;;8.62;84.47;95144.59;5088619;28;20196;-78
2021/05/12 00:53:24;;;;;;;1.50;1.40;;;;;;;8.64;84.40;95152.19;5054630;28;20502;-79
2021/05/12 00:55:49;;;;;;;2.27;1.70;;;;;;;8.66;84.27;95145.13;5055204;28;20185;-79
2021/05/12 00:58:15;;;;;;;1.87;1.63;;;;;;;8.65;84.48;95159.81;5071722;28;20224;-78
2021/05/12 01:00:40;;;;;;;2.60;1.97;;;;;;;8.62;84.71;95154.94;5071564;28;20270;-79
2021/05/12 01:03:06;;;;;;;2.67;1.97;;;;;;;8.66;84.11;95161.47;5054838;28;20185;-78
2021/05/12 01:05:34;;;;;;;2.50;2.07;;;;;;;8.59;84.45;95157.81;5071463;28;20177;-79
2021/05/12 01:08:01;;;;;;;6.63;2.50;;;;;;;8.54;84.55;95165.19;5071663;28;20177;-79
2021/05/12 01:10:26;;;;;;;2.83;2.33;;;;;;;8.62;84.38;95161.91;5071366;28;20181;-79
2021/05/12 01:12:52;;;;;;;2.63;2.40;;;;;;;8.54;84.50;95167.78;5071214;28;20264;-79
2021/05/12 01:15:18;;;;;;;3.10;2.00;;;;;;;8.56;84.41;95167.63;5071465;28;20173;-79
2021/05/12 01:17:44;;;;;;;3.60;2.27;;;;;;;8.50;85.03;95169.03;5054521;28;20552;-80
2021/05/12 01:20:10;;;;;;;3.30;2.83;;;;;;;8.51;84.85;95174.06;5054302;28;20185;-78
2021/05/12 01:22:36;;;;;;;3.07;2.50;;;;;;;8.50;84.98;95169.03;5070735;28;20200;-79
2021/05/12 01:25:02;;;;;;;4.10;2.90;;;;;;;8.50;85.10;95176.81;5054371;28;20531;-80
2021/05/12 01:27:28;;;;;;;4.47;3.00;;;;;;;8.48;85.30;95176.97;5072390;28;20556;-78
2021/05/12 01:29:53;;;;;;;3.50;3.20;;;;;;;8.48;84.79;95186.47;5054547;28;20267;-79
2021/05/12 01:32:19;;;;;;;4.43;3.60;;;;;;;8.43;84.99;95181.75;5053796;28;20569;-79
2021/05/12 01:34:44;;;;;;;3.60;3.23;;;;;;;8.42;85.08;95180.13;5070667;28;20180;-79
2021/05/12 01:37:10;;;;;;;4.30;3.57;;;;;;;8.44;85.23;95182.56;5054229;28;20581;-79
2021/05/12 01:39:35;;;;;;;4.33;3.20;;;;;;;8.47;85.24;95183.06;5071206;28;20169;-79
2021/05/12 01:42:00;;;;;;;7.57;4.10;;;;;;;8.47;85.21;95184.84;5070925;28;20561;-79
2021/05/12 01:44:26;;;;;;;5.60;4.10;;;;;;;8.38;85.24;95190.88;5071279;28;20181;-79
2021/05/12 01:46:51;;;;;;;4.30;3.87;;;;;;;8.49;84.78;95183.75;5054206;28;20177;-80
2021/05/12 01:49:17;;;;;;;7.40;4.90;;;;;;;8.46;84.17;95184.03;5054107;28;20227;-79
2021/05/12 01:51:42;;;;;;;6.63;4.73;;;;;;;8.47;84.30;95192.59;5070687;28;20213;-79
2021/05/12 01:54:09;;;;;;;5.77;5.23;;;;;;;8.49;84.18;95185.53;5053631;28;20182;-80
2021/05/12 01:56:35;;;;;;;6.10;4.67;;;;;;;8.47;84.20;95179.66;5072293;28;20200;-79
2021/05/12 01:59:01;;;;;;;5.70;5.10;;;;;;;8.44;84.21;95179.97;5070810;28;20199;-79
2021/05/12 02:01:26;;;;;;;5.97;5.37;;;;;;;8.49;84.26;95182.94;5053928;28;20787;-79
2021/05/12 02:03:51;;;;;;;9.13;5.70;;;;;;;8.41;84.24;95177.66;5054009;28;20177;-79
2021/05/12 02:06:17;;;;;;;9.63;6.07;;;;;;;8.39;84.53;95174.38;5071102;28;20659;-80
2021/05/12 02:08:42;;;;;;;6.93;5.60;;;;;;;8.44;84.18;95174.78;5072327;28;20181;-79
2021/05/12 02:11:07;;;;;;;8.60;6.27;;;;;;;8.31;84.68;95177.69;5070356;28;20204;-80
2021/05/12 02:13:34;;;;;;;7.87;6.30;;;;;;;8.35;84.57;95171.28;5070955;28;20184;-80
2021/05/12 02:16:03;;;;;;;8.47;6.40;;;;;;;8.37;84.59;95160.78;5070619;28;20178;-79
2021/05/12 02:18:29;;;;;;;7.10;6.40;;;;;;;8.30;84.84;95170.03;5070711;28;20180;-80
2021/05/12 02:20:54;;;;;;;7.07;6.00;;;;;;;8.34;84.75;95164.44;5070602;28;20193;-80
2021/05/12 02:23:21;;;;;;;7.93;6.17;;;;;;;8.39;84.57;95172.66;5070781;28;20213;-79
2021/05/12 02:25:46;;;;;;;7.03;6.33;;;;;;;8.37;84.52;95168.56;5054180;28;20239;-80
2021/05/12 02:28:11;;;;;;;14.07;6.40;;;;;;;8.37;84.24;95181.50;5071882;28;20223;-80
2021/05/12 02:30:37;;;;;;;12.43;6.93;;;;;;;8.39;84.62;95175.22;5054215;28;20185;-80
2021/05/12 02:33:04;;;;;;;12.73;7.10;;;;;;;8.35;84.49;95178.22;5071516;28;20257;-80
2021/05/12 02:35:29;;;;;;;9.80;7.47;;;;;;;8.39;84.77;95166.63;5054897;28;20184;-80
2021/05/12 02:37:55;;;;;;;8.83;7.57;;;;;;;8.32;84.87;95166.38;5054744;28;20209;-80
2021/05/12 02:40:22;;;;;;;14.03;8.20;;;;;;;8.36;84.74;95172.09;5055047;28;20201;-80
2021/05/12 02:42:48;;;;;;;9.23;8.00;;;;;;;8.40;84.85;95168.28;5071676;28;20197;-79
2021/05/12 02:45:13;;;;;;;12.20;9.07;;;;;;;8.37;85.00;95161.59;5055107;28;20207;-79
2021/05/12 02:47:39;;;;;;;12.83;9.80;;;;;;;8.40;84.94;95168.28;5075390;28;20175;-80
2021/05/12 02:50:09;;;;;;;10.97;9.00;;;;;;;8.43;85.06;95168.81;5058589;28;20252;-79
2021/05/12 02:52:34;;;;;;;13.20;9.30;;;;;;;8.34;85.02;95163.63;5074484;28;20212;-80
2021/05/12 02:54:59;;;;;;;16.13;9.73;;;;;;;8.41;84.98;95167.31;5074759;28;20189;-80
2021/05/12 02:57:25;;;;;;;12.27;9.57;;;;;;;8.48;84.68;95158.84;5074512;28;20262;-79
2021/05/12 02:59:51;;;;;;;14.80;10.30;;;;;;;8.44;84.82;95165.25;5074669;28;20185;-80
2021/05/12 03:02:16;;;;;;;13.07;9.30;;;;;;;8.43;85.20;95167.97;5073208;28;20339;-80
2021/05/12 03:04:41;;;;;;;16.23;10.10;;;;;;;8.33;85.29;95159.44;5057029;28;20212;-80
2021/05/12 03:07:07;;;;;;;15.93;10.43;;;;;;;8.34;85.55;95161.88;5073572;28;20185;-79
2021/05/12 03:09:32;;;;;;;15.40;11.27;;;;;;;8.34;85.60;95164.44;5073675;28;20454;-80
2021/05/12 03:11:57;;;;;;;12.87;11.33;;;;;;;8.28;85.62;95165.00;5073331;28;20211;-79
2021/05/12 03:14:23;;;;;;;15.43;11.03;;;;;;;8.30;85.68;95167.44;5073410;28;20226;-80
2021/05/12 03:16:48;;;;;;;15.20;10.87;;;;;;;8.21;86.04;95164.75;5073285;28;20270;-79
2021/05/12 03:19:14;;;;;;;14.23;11.13;;;;;;;8.20;86.25;95170.91;5056640;28;20644;-80
2021/05/12 03:21:39;;;;;;;15.10;10.90;;;;;;;8.28;86.15;95165.00;5056323;28;20221;-80
2021/05/12 03:24:05;;;;;;;15.83;10.77;;;;;;;8.36;85.68;95172.91;5073300;28;20177;-79
2021/05/12 03:26:32;;;;;;;14.50;10.33;;;;;;;8.36;85.42;95172.09;5073023;28;20173;-79
2021/05/12 03:28:57;;;;;;;16.90;10.40;;;;;;;8.33;85.35;95173.19;5073566;28;20272;-79
2021/05/12 03:31:23;;;;;;;12.87;10.70;;;;;;;8.37;85.44;95173.72;5056011;28;20201;-79
2021/05/12 03:33:48;;;;;;;15.73;10.10;;;;;;;8.34;85.44;95171.41;5073028;28;20201;-79
2021/05/12 03:36:14;;;;;;;13.03;10.20;;;;;;;8.39;85.48;95180.41;5073007;28;20675;-79
2021/05/12 03:38:39;;;;;;;12.90;9.17;;;;;;;8.39;85.59;95177.81;5072782;28;20600;-79
2021/05/12 03:41:06;;;;;;;14.30;10.20;;;;;;;8.34;85.38;95179.16;5055881;28;20224;-80
2021/05/12 03:43:31;;;;;;;11.60;9.97;;;;;;;8.34;85.70;95176.56;5056145;28;20205;-80
2021/05/12 03:45:57;;;;;;;14.23;9.90;;;;;;;8.37;85.35;95178.91;5073108;28;20626;-79
2021/05/12 03:48:22;;;;;;;12.00;9.40;;;;;;;8.33;85.41;95178.34;5056149;28;20231;-79
2021/05/12 03:50:48;;;;;;;10.93;8.60;;;;;;;8.41;84.44;95180.25;5072102;28;20288;-79
2021/05/12 03:53:13;;;;;;;8.77;7.77;;;;;;;8.27;84.69;95178.09;5055354;28;20558;-79
2021/05/12 03:55:39;;;;;;;11.93;8.10;;;;;;;8.17;84.09;95176.38;5072549;28;20184;-79
2021/05/12 03:58:05;;;;;;;11.87;8.37;;;;;;;8.05;84.95;95176.69;5055577;28;20251;-79
2021/05/12 04:00:30;;;;;;;10.73;8.00;;;;;;;8.23;84.06;95177.59;5055396;28;20185;-79
2021/05/12 04:02:56;;;;;;;10.43;7.27;;;;;;;8.14;84.31;95176.66;5055613;28;20188;-78
2021/05/12 04:05:22;;;;;;;7.87;7.07;;;;;;;8.11;84.23;95173.53;5056311;28;20184;-79
2021/05/12 04:07:48;;;;;;;12.23;7.87;;;;;;;8.09;83.95;95172.84;5056035;28;20627;-79
2021/05/12 04:10:13;;;;;;;10.87;6.40;;;;;;;8.03;84.15;95173.41;5055920;28;20181;-79
2021/05/12 04:12:39;;;;;;;8.33;6.73;;;;;;;8.05;83.92;95166.34;5072514;28;20197;-80
2021/05/12 04:15:06;;;;;;;9.73;6.17;;;;;;;7.97;84.04;95174.81;5055476;28;20209;-79
2021/05/12 04:17:31;;;;;;;9.53;6.20;;;;;;;7.89;83.96;95166.94;5071874;28;20211;-79
2021/05/12 04:19:56;;;;;;;11.23;6.23;;;;;;;7.93;84.04;95166.50;5071953;28;20181;-79
2021/05/12 04:22:22;;;;;;;7.53;6.07;;;;;;;7.98;83.82;95173.84;5055106;28;20243;-79
2021/05/12 04:24:47;;;;;;;7.50;6.47;;;;;;;7.91;83.92;95165.81;5055399;28;20568;-79
2021/05/12 04:27:12;;;;;;;10.57;6.03;;;;;;;7.97;83.85;95174.00;5072235;28;20694;-79
2021/05/12 04:29:38;;;;;;;7.00;5.90;;;;;;;7.96;83.56;95170.59;5072156;28;20181;-79
2021/05/12 04:32:05;;;;;;;9.70;5.87;;;;;;;7.95;83.50;95168.94;5054807;28;20220;-79
2021/05/12 04:34:30;;;;;;;7.27;6.47;;;;;;;7.85;83.82;95176.72;5055043;28;20664;-79
2021/05/12 04:36:55;;;;;;;8.23;6.77;;;;;;;7.88;83.90;95171.28;5055133;28;20241;-79
2021/05/12 04:39:21;;;;;;;8.87;6.03;;;;;;;7.87;83.97;95168.84;5055233;28;20174;-80
2021/05/12 04:41:46;;;;;;;9.77;6.20;;;;;;;7.82;83.33;95163.28;5071379;28;20196;-79
2021/05/12 04:44:12;;;;;;;8.00;5.83;;;;;;;7.90;83.55;95174.53;5054964;28;20185;-79
2021/05/12 04:46:39;;;;;;;8.67;6.63;;;;;;;7.87;83.85;95167.06;5071884;28;20200;-80
2021/05/12 04:49:06;;;;;;;7.83;6.00;;;;;;;7.90;83.59;95165.97;5071839;28;20200;-79
2021/05/12 04:51:33;;;;;;;11.10;7.13;;;;;;;7.93;82.64;95169.09;5072541;28;20223;-79
2021/05/12 04:53:59;;;;;;;10.07;6.17;;;;;;;7.98;82.67;95168.69;5071266;28;20635;-79
2021/05/12 04:56:24;;;;;;;5.93;5.33;;;;;;;7.99;83.36;95167.72;5071416;28;20196;-77
2021/05/12 04:58:49;;;;;;;10.40;6.07;;;;;;;8.03;82.61;95163.06;5072668;28;20180;-79
2021/05/12 05:01:15;;;;;;;8.10;5.90;;;;;;;8.12;82.03;95169.97;5050377;28;20211;-79
2021/05/12 05:03:42;;;;;;;6.87;5.00;;;;;;;8.17;81.74;95163.44;5040353;28;20198;-79
2021/05/12 05:06:07;;;;;;;8.80;5.07;;;;;;;8.27;81.42;95165.16;5050385;28;20188;-80
2021/05/12 05:08:33;;;;;;;6.83;4.70;;;;;;;8.34;81.25;95169.63;5046350;28;20185;-79
2021/05/12 05:10:58;;;;;;;6.63;4.50;;;;;;;8.39;80.92;95180.41;5039001;28;20289;-79
2021/05/12 05:13:23;;;;;;;5.77;4.33;;;;;;;8.27;80.91;95171.16;5056275;28;20209;-78
2021/05/12 05:15:49;;;;;;;6.33;4.23;;;;;;;8.30;81.00;95172.63;5065691;28;20182;-79
2021/05/12 05:18:15;;;;;;;5.30;4.13;;;;;;;8.39;80.65;95171.81;5043159;28;20185;-79
2021/05/12 05:20:40;;;;;;;6.50;4.37;;;;;;;8.32;80.41;95171.56;5053034;28;20260;-79
2021/05/12 05:23:05;;;;;;;7.07;4.23;;;;;;;8.36;80.59;95172.09;5042402;28;20611;-79
2021/05/12 05:25:31;;;;;;;6.07;4.43;;;;;;;8.39;80.47;95176.97;5074648;28;20191;-79
2021/05/12 05:27:56;;;;;;;6.30;4.80;;;;;;;8.40;79.83;95181.22;5061064;28;20238;-79
2021/05/12 05:30:22;;;;;;;7.17;4.97;;;;;;;8.44;79.55;95187.72;5062955;28;20189;-80
2021/05/12 05:32:47;;;;;;;6.07;4.30;;;;;;;8.39;80.03;95185.59;5037374;28;20213;-79
2021/05/12 05:35:12;;;;;;;6.07;4.37;;;;;;;8.44;79.37;95196.31;5049654;28;20189;-79
2021/05/12 05:37:38;;;;;;;6.87;4.30;;;;;;;8.41;79.29;95195.78;5045845;28;20213;-79
2021/05/12 05:40:04;;;;;;;5.97;4.53;;;;;;;8.30;79.94;95208.84;5059933;28;20181;-80
2021/05/12 05:42:29;;;;;;;7.60;5.10;;;;;;;8.27;80.36;95198.78;5056485;28;20213;-79
2021/05/12 05:44:54;;;;;;;6.30;4.53;;;;;;;8.27;80.86;95204.78;5048324;28;20644;-81
2021/05/12 05:47:19;;;;;;;5.17;4.33;;;;;;;8.16;80.28;95210.13;5046464;28;20173;-79
2021/05/12 05:49:48;;;;;;;6.87;4.70;;;;;;;8.24;80.56;95202.50;5064598;28;20673;-80
2021/05/12 05:52:13;;;;;;;7.30;4.93;;;;;;;8.23;80.60;95209.44;5039232;28;20202;-79
2021/05/12 05:54:38;;;;;;;6.33;4.90;;;;;;;8.11;80.97;95207.97;5047994;28;20558;-78
2021/05/12 05:57:14;;;;;;;7.30;4.70;;;;;;;8.32;80.86;95207.78;5053823;28;20677;-78
2021/05/12 05:59:39;;;;;;;6.27;5.03;;;;;;;8.18;80.87;95211.63;5059182;28;20181;-79
2021/05/12 06:02:05;;;;;;;7.33;4.73;;;;;;;8.26;81.25;95220.44;5048028;28;20220;-80
2021/05/12 06:04:30;;;;;;;7.37;4.80;;;;;;;8.26;80.39;95210.91;5041137;28;20568;-78
2021/05/12 06:06:56;;;;;;;7.63;4.57;;;;;;;8.32;80.58;95219.91;5053866;28;20197;-79
2021/05/12 06:09:22;;;;;;;7.67;4.73;;;;;;;8.23;80.75;95218.97;5062298;28;20219;-79
2021/05/12 06:11:48;;;;;;;8.13;4.07;;;;;;;8.21;81.07;95216.50;5061991;28;20202;-78
2021/05/12 06:14:13;;;;;;;6.50;4.20;;;;;;;8.28;80.49;95221.94;5042813;28;20197;-80
2021/05/12 06:16:38;;;;;;;9.13;4.43;;;;;;;8.24;80.86;95226.59;5065033;28;20210;-80
2021/05/12 06:19:04;;;;;;;4.80;3.90;;;;;;;8.21;80.49;95220.84;5056059;28;20555;-79
2021/05/12 06:21:29;;;;;;;4.63;3.90;;;;;;;8.21;80.98;95224.25;5064730;28;20276;-80
2021/05/12 06:23:54;;;;;;;5.40;4.17;;;;;;;8.20;80.76;95230.38;5048502;28;20283;-80
2021/05/12 06:26:21;;;;;;;6.47;4.57;;;;;;;8.23;80.82;95230.13;5062788;28;20223;-80
2021/05/12 06:28:47;;;;;;;6.17;3.90;;;;;;;8.29;80.67;95239.06;5064272;28;20188;-80
2021/05/12 06:31:12;;;;;;;7.70;3.80;;;;;;;8.30;80.55;95238.13;5069735;28;20197;-80
2021/05/12 06:33:40;;;;;;;5.20;3.40;;;;;;;8.34;80.71;95233.50;5040467;28;20178;-80
2021/05/12 06:36:05;;;;;;;5.77;3.63;;;;;;;8.41;80.24;95237.19;5047473;28;20196;-79
2021/05/12 06:38:31;;;;;;;5.67;3.50;;;;;;;8.30;80.12;95232.94;5071964;28;20636;-79
2021/05/12 06:40:56;;;;;;;4.67;3.50;;;;;;;8.36;79.96;95226.44;5045978;28;20273;-78
2021/05/12 06:43:21;;;;;;;5.93;3.27;;;;;;;8.31;80.14;95231.19;5065999;28;20560;-79
2021/05/12 06:45:47;;;;;;;4.83;3.43;;;;;;;8.29;79.69;95235.69;5071664;28;20181;-80
2021/05/12 06:48:12;;;;;;;6.07;3.10;;;;;;;8.34;79.68;95236.09;5046917;28;20185;-80
2021/05/12 06:50:37;;;;;;;6.60;3.37;;;;;;;8.27;80.41;95235.00;5054920;28;20204;-79
2021/05/12 06:53:03;;;;;;;5.30;3.23;;;;;;;8.33;80.11;95237.03;5059850;28;20667;-80
2021/05/12 06:55:28;;;;;;;5.23;3.10;;;;;;;8.34;80.05;95238.66;5043292;28;20176;-79
2021/05/12 06:57:53;;;;;;;6.27;3.37;;;;;;;8.32;80.88;95243.19;5064489;28;20233;-79
2021/05/12 07:00:20;;;;;;;6.73;2.93;;;;;;;8.32;80.76;95246.56;5061308;28;20734;-79
2021/05/12 07:02:45;;;;;;;8.70;3.47;;;;;;;8.32;80.60;95244.00;5056892;28;20198;-79
2021/05/12 07:05:14;;;;;;;4.50;2.80;;;;;;;8.41;80.29;95247.53;5070553;28;20663;-79
2021/05/12 07:07:40;;;;;;;8.17;3.60;;;;;;;8.35;80.09;95245.50;5049799;28;20225;-80
2021/05/12 07:10:06;;;;;;;7.03;3.13;;;;;;;8.44;80.14;95242.88;5043751;28;20285;-79
2021/05/12 07:12:32;;;;;;;5.10;2.70;;;;;;;8.50;80.00;95236.34;5049749;28;20955;-79
2021/05/12 07:14:57;;;;;;;4.90;3.30;;;;;;;8.44;80.08;95244.66;5044889;28;20182;-80
2021/05/12 07:17:23;;;;;;;4.20;2.97;;;;;;;8.49;80.12;95250.22;5041097;28;20201;-80
2021/05/12 07:19:48;;;;;;;5.63;3.17;;;;;;;8.47;80.16;95241.78;5048130;28;20671;-79
2021/05/12 07:22:13;;;;;;;7.30;3.50;;;;;;;8.53;80.36;95246.38;5043728;28;20214;-79
2021/05/12 07:24:39;;;;;;;5.77;3.20;;;;;;;8.45;80.55;95249.69;5051542;28;20216;-79
2021/05/12 07:27:04;;;;;;;4.33;3.10;;;;;;;8.45;80.06;95254.84;5050857;28;20181;-79
2021/05/12 07:29:29;;;;;;;5.43;3.17;;;;;;;8.55;79.72;95260.00;5042793;28;20799;-79
2021/05/12 07:31:55;;;;;;;3.17;2.77;;;;;;;8.51;79.95;95258.66;5063059;28;20236;-79
2021/05/12 07:34:20;;;;;;;4.60;2.77;;;;;;;8.55;79.95;95261.78;5063945;28;20221;-80
2021/05/12 07:36:45;;;;;;;6.07;3.07;;;;;;;8.51;79.73;95259.47;5050715;28;20302;-80
2021/05/12 07:39:10;;;;;;;4.87;3.07;;;;;;;8.56;79.29;95260.81;5060440;28;20657;-80
2021/05/12 07:41:36;;;;;;;3.80;3.10;;;;;;;8.47;79.42;95252.94;5058680;28;20237;-79
2021/05/12 07:44:05;;;;;;;5.63;2.97;;;;;;;8.45;79.45;95259.22;5041657;28;20236;-79
2021/05/12 07:46:31;;;;;;;5.47;2.90;;;;;;;8.48;79.33;95256.34;5068071;28;20201;-79
2021/05/12 07:48:56;;;;;;;6.03;2.83;;;;;;;8.49;79.28;95251.03;5060076;28;20278;-81
2021/05/12 07:51:22;;;;;;;5.30;3.47;;;;;;;8.58;79.09;95251.16;5041332;28;20205;-80
2021/05/12 07:53:47;;;;;;;4.83;2.90;;;;;;;8.57;79.01;95245.16;5064390;28;20186;-79
2021/05/12 07:56:13;;;;;;;4.27;2.63;;;;;;;8.65;79.25;95239.25;5055031;28;20197;-79
2021/05/12 07:58:38;;;;;;;4.13;2.80;;;;;;;8.68;78.81;95239.78;5053263;28;20185;-79
2021/05/12 08:01:15;;;;;;;6.07;2.77;;;;;;;8.74;78.46;95239.19;5055961;28;20204;-79
2021/05/12 08:03:40;;;;;;;4.67;2.60;;;;;;;8.81;78.36;95229.09;5065092;28;20258;-79
2021/05/12 08:06:06;;;;;;;3.23;2.70;;;;;;;8.79;78.25;95231.81;5044276;28;20577;-80
2021/05/12 08:08:31;;;;;;;3.27;2.63;;;;;;;8.83;77.73;95226.34;5063350;28;20593;-79
2021/05/12 08:10:56;;;;;;;4.07;2.63;;;;;;;8.76;77.48;95226.13;5057263;28;20255;-79
2021/05/12 08:13:22;;;;;;;6.20;2.77;;;;;;;8.85;77.33;95232.22;5047139;28;20193;-79
2021/05/12 08:15:47;;;;;;;5.17;2.73;;;;;;;8.89;77.33;95228.38;5065371;28;20192;-80
2021/05/12 08:18:12;;;;;;;4.30;2.70;;;;;;;8.96;77.13;95225.06;5042530;28;20618;-79
2021/05/12 08:20:38;;;;;;;7.07;2.90;;;;;;;8.94;77.48;95228.75;5064501;28;20209;-79
2021/05/12 08:23:03;;;;;;;4.13;2.93;;;;;;;8.88;77.25;95230.16;5054743;28;20264;-80
2021/05/12 08:25:28;;;;;;;4.20;2.60;;;;;;;8.97;77.12;95233.63;5063750;28;20238;-80
2021/05/12 08:27:55;;;;;;;5.40;3.07;;;;;;;9.01;77.13;95234.97;5047072;28;20234;-80
2021/05/12 08:30:23;;;;;;;4.67;2.87;;;;;;;8.92;76.96;95231.50;5059513;28;20173;-78
2021/05/12 08:32:50;;;;;;;4.27;2.43;;;;;;;8.96;77.37;95237.19;5058937;28;20232;-78
2021/05/12 08:35:15;;;;;;;5.80;3.10;;;;;;;8.91;76.61;95234.22;5051512;28;20337;-80
2021/05/12 08:37:40;;;;;;;4.03;2.70;;;;;;;8.91;77.06;95239.38;5047518;28;20292;-79
2021/05/12 08:40:06;;;;;;;3.17;2.60;;;;;;;8.92;76.75;95235.84;5068400;28;20244;-77
2021/05/12 08:42:32;;;;;;;4.00;2.53;;;;;;;8.94;77.01;95234.75;5072260;28;20221;-78
2021/05/12 08:44:59;;;;;;;2.60;2.17;;;;;;;8.99;76.87;95242.06;5054150;28;20189;-79
2021/05/12 08:47:25;;;;;;;4.97;2.87;;;;;;;8.99;76.98;95236.91;5049045;28;20281;-79
2021/05/12 08:49:51;;;;;;;6.97;2.50;;;;;;;9.13;76.95;95233.00;5041741;28;20243;-79
2021/05/12 08:52:17;;;;;;;5.47;2.50;;;;;;;9.04;76.95;95240.69;5060520;28;20205;-79
2021/05/12 08:54:42;;;;;;;5.37;2.50;;;;;;;9.06;76.59;95236.19;5049076;28;20185;-79
2021/05/12 08:57:08;;;;;;;4.37;2.57;;;;;;;9.03;76.72;95235.66;5038130;28;20202;-79
2021/05/12 08:59:33;;;;;;;9.90;3.10;;;;;;;9.12;76.03;95233.97;5048666;28;20185;-79
2021/05/12 09:01:59;;;;;;;4.50;2.63;;;;;;;9.05;76.35;95233.72;5035057;28;20352;-78
2021/05/12 09:04:26;;;;;;;3.33;2.53;;;;;;;9.07;76.87;95234.41;5048298;28;20184;-79
2021/05/12 09:06:52;;;;;;;3.87;2.73;;;;;;;9.05;77.12;95238.91;5039515;28;20216;-80
2021/05/12 09:09:17;;;;;;;6.57;2.60;;;;;;;9.01;76.92;95237.56;5062909;28;20200;-78
2021/05/12 09:11:42;;;;;;;5.47;2.57;;;;;;;8.95;76.95;95235.56;5052349;28;20209;-78
2021/05/12 09:14:28;;;;;;;4.93;2.70;;;;;;;9.03;76.69;95239.06;5043146;28;20180;-79
2021/05/12 09:16:53;;;;;;;8.23;2.73;;;;;;;8.99;76.55;95236.91;5051991;28;20571;-79
2021/05/12 09:19:22;;;;;;;4.60;2.40;;;;;;;9.04;76.76;95232.91;5049509;28;20178;-78
2021/05/12 09:21:58;;;;;;;5.90;2.53;;;;;;;9.06;76.73;95223.22;5066530;28;20520;-79
2021/05/12 09:24:28;;;;;;;4.50;2.60;;;;;;;9.09;76.38;95224.69;5041014;28;20181;-78
2021/05/12 09:26:57;;;;;;;4.90;2.30;;;;;;;9.11;76.77;95227.97;5060278;28;20590;-78
2021/05/12 09:29:37;;;;;;;7.37;2.60;;;;;;;9.17;76.71;95229.16;5067302;28;20188;-79
2021/05/12 09:32:10;;;;;;;4.40;2.50;;;;;;;9.19;75.86;95225.47;5039636;28;20210;-79
2021/05/12 09:34:58;;;;;;;4.77;2.63;;;;;;;9.17;75.82;95229.16;5059305;28;20648;-79
2021/05/12 09:37:30;;;;;;;6.33;2.37;;;;;;;9.03;76.85;95228.69;5057674;28;20198;-80
2021/05/12 09:39:56;;;;;;;3.57;2.20;;;;;;;9.23;76.44;95229.38;5058653;28;20182;-78
2021/05/12 09:42:21;;;;;;;4.73;2.37;;;;;;;9.27;76.18;95229.91;5044359;28;20708;-78
2021/05/12 09:44:48;;;;;;;5.37;2.10;;;;;;;9.36;75.43;95227.25;5042727;28;20259;-79
2021/05/12 09:47:28;;;;;;;4.67;2.23;;;;;;;9.45;75.03;95229.91;5066390;28;20170;-79
2021/05/12 09:49:54;;;;;;;3.03;2.20;;;;;;;9.41;74.77;95231.97;5042703;28;20269;-79
2021/05/12 09:52:29;;;;;;;2.80;1.90;;;;;;;9.34;74.65;95230.94;5067350;28;20212;-78
2021/05/12 09:54:59;;;;;;;4.33;1.70;;;;;;;9.40;74.56;95224.38;5061223;28;20621;-79
2021/05/12 09:57:25;;;;;;;6.20;2.17;;;;;;;9.38;74.90;95226.28;5058294;28;20724;-78
2021/05/12 09:59:50;;;;;;;2.73;1.80;;;;;;;9.49;74.80;95223.47;5067762;28;20203;-79
2021/05/12 10:02:15;;;;;;;5.83;2.40;;;;;;;9.44;74.83;95230.88;5063146;28;20244;-79
2021/05/12 10:04:45;;;;;;;3.53;1.90;;;;;;;9.57;74.48;95228.72;5065994;28;20181;-79
2021/05/12 10:07:13;;;;;;;4.10;2.00;;;;;;;9.54;73.70;95236.78;5071337;28;20234;-78
2021/05/12 10:09:40;;;;;;;4.00;2.17;;;;;;;9.54;74.16;95227.25;5071236;28;20181;-80
2021/05/12 10:12:08;;;;;;;11.07;2.20;;;;;;;9.67;74.14;95223.47;5047634;28;20217;-79
2021/05/12 10:14:35;;;;;;;5.37;1.97;;;;;;;9.78;74.00;95228.41;5063007;28;20280;-79
2021/05/12 10:17:05;;;;;;;4.43;1.73;;;;;;;9.90;73.70;95214.25;5070085;28;20254;-79
2021/05/12 10:19:31;;;;;;;5.00;2.20;;;;;;;9.89;72.25;95218.63;5059993;28;20193;-78
2021/05/12 10:22:00;;;;;;;3.17;2.10;;;;;;;9.99;71.94;95212.53;5049212;28;20639;-79
2021/05/12 10:24:26;;;;;;;7.13;2.33;;;;;;;9.80;72.53;95216.09;5043527;28;20205;-78
2021/05/12 10:26:51;;;;;;;5.37;2.10;;;;;;;10.00;72.72;95211.56;5061142;28;20203;-78
2021/05/12 10:29:18;;;;;;;4.30;2.20;;;;;;;10.16;72.16;95209.06;5040976;28;20177;-78
2021/05/12 10:31:44;;;;;;;3.90;1.90;;;;;;;10.10;72.09;95199.28;5043768;28;20212;-79
2021/05/12 10:34:09;;;;;;;4.20;2.10;;;;;;;10.18;71.35;95207.13;5059927;28;20181;-78
2021/05/12 10:36:34;;;;;;;3.80;2.20;;;;;;;10.33;70.63;95200.41;5061259;28;20205;-79
2021/05/12 10:39:03;;;;;;;4.27;2.20;;;;;;;10.63;70.19;95203.50;5039713;28;20563;-79
2021/05/12 10:41:43;;;;;;;3.70;2.07;;;;;;;10.82;69.43;95198.03;5058350;28;20201;-78
2021/05/12 10:44:16;;;;;;;6.63;2.10;;;;;;;11.03;68.63;95197.59;5049305;28;20259;-77
2021/05/12 10:46:53;;;;;;;5.73;2.23;;;;;;;11.34;68.12;95196.06;5063895;28;20541;-78
2021/05/12 10:49:21;;;;;;;2.47;1.47;;;;;;;11.49;65.95;95201.44;5055747;28;20177;-78
2021/05/12 10:51:47;;;;;;;4.27;1.80;;;;;;;11.78;66.59;95195.75;5059561;28;20205;-78
2021/05/12 10:54:13;;;;;;;3.83;2.03;;;;;;;11.94;66.03;95188.94;5040170;28;20185;-78
2021/05/12 10:56:41;;;;;;;6.77;2.20;;;;;;;12.06;65.57;95183.22;5048772;28;20232;-78
2021/05/12 10:59:08;;;;;;;5.50;1.97;;;;;;;12.43;65.56;95180.03;5040224;28;20611;-77
2021/05/12 11:01:42;;;;;;;5.20;1.67;;;;;;;12.75;63.77;95183.50;5045077;28;20201;-77
2021/05/12 11:04:08;;;;;;;5.70;1.80;;;;;;;13.18;63.61;95181.34;5064858;28;20184;-79
2021/05/12 11:06:33;;;;;;;5.47;2.13;;;;;;;13.20;61.64;95175.00;5051869;28;20597;-78
2021/05/12 11:09:18;;;;;;;4.27;1.67;;;;;;;13.64;60.99;95176.97;5065207;28;20241;-78
2021/05/12 11:11:44;;;;;;;6.93;1.87;;;;;;;14.17;60.54;95175.19;5043038;28;20269;-80
2021/05/12 11:14:19;;;;;;;4.77;1.80;;;;;;;14.38;59.58;95171.84;5064745;28;20272;-79
2021/05/12 11:17:10;;;;;;;7.37;1.80;;;;;;;14.82;59.20;95171.06;5054421;28;20233;-78
2021/05/12 11:19:35;;;;;;;7.20;1.80;;;;;;;14.30;57.50;95164.91;5064853;28;20215;-77
2021/05/12 11:22:43;;;;;;;4.07;1.80;;;;;;;14.96;56.17;95171.03;5065212;28;20240;-76
2021/05/12 11:33:20;;;;;;;7.10;1.70;;;;;;;14.58;55.22;95161.72;5067566;28;20212;-77
2021/05/12 11:35:46;;;;;;;3.33;1.50;;;;;;;14.22;55.30;95162.38;5054517;28;20554;-77
2021/05/12 11:38:18;;;;;;;8.10;2.03;;;;;;;14.57;54.44;95162.69;5065505;28;20849;-78
2021/05/12 11:41:04;;;;;;;4.57;1.73;;;;;;;14.34;54.45;95160.97;5037372;28;20214;-78
2021/05/12 11:44:00;;;;;;;4.67;1.87;;;;;;;14.42;55.15;95154.84;5055485;28;20201;-79
2021/05/12 11:46:26;;;;;;;4.67;2.13;;;;;;;14.80;55.99;95167.81;5059985;28;20582;-78